AZA1693 LIMC-LICC
Flight info
| Callsign | AZA1693 |
|---|---|
| Flight time | 2h 9m |
| Altitude | 35000 |
| Route | ROBAS DCT TINKU DCT MAREL DCT BEKIV DCT LIBRO |
| Aircraft | A320/M-SDE3FGHIRWY/LB1 |
Departure
| Time | 2026-02-19 12:45 |
|---|---|
| Airport | Milan Malpensa International Airport (LIMC) |
Arrival
| Time | 2026-02-19 14:54 |
|---|---|
| Airport | Catania-Fontanarossa Airport (LICC) |
| Time | Latitude | Longitude | Altitude | Speed | Heading |
|---|---|---|---|---|---|
| 2026-02-19 12:31 | 45.62864 | 8.71641 | 741 ft | 0 kts | 258° |
| 2026-02-19 12:36 | 45.62868 | 8.71671 | 741 ft | 2 kts | 258° |
| 2026-02-19 12:36 | 45.62871 | 8.71695 | 738 ft | 2 kts | 258° |
| 2026-02-19 12:37 | 45.62875 | 8.71719 | 738 ft | 2 kts | 257° |
| 2026-02-19 12:37 | 45.62883 | 8.71739 | 740 ft | 2 kts | 186° |
| 2026-02-19 12:37 | 45.62890 | 8.71740 | 737 ft | 0 kts | 156° |
| 2026-02-19 12:38 | 45.62889 | 8.71742 | 738 ft | 2 kts | 149° |
| 2026-02-19 12:39 | 45.62865 | 8.71765 | 740 ft | 5 kts | 149° |
| 2026-02-19 12:39 | 45.62825 | 8.71783 | 741 ft | 8 kts | 168° |
| 2026-02-19 12:39 | 45.62762 | 8.71800 | 741 ft | 10 kts | 169° |
| 2026-02-19 12:39 | 45.62690 | 8.71819 | 741 ft | 11 kts | 168° |
| 2026-02-19 12:40 | 45.62661 | 8.71897 | 741 ft | 9 kts | 82° |
| 2026-02-19 12:40 | 45.62680 | 8.72060 | 741 ft | 9 kts | 81° |
| 2026-02-19 12:40 | 45.62655 | 8.72132 | 741 ft | 10 kts | 167° |
| 2026-02-19 12:41 | 45.62583 | 8.72155 | 741 ft | 12 kts | 163° |
| 2026-02-19 12:41 | 45.62508 | 8.72182 | 741 ft | 12 kts | 168° |
| 2026-02-19 12:41 | 45.62419 | 8.72207 | 741 ft | 15 kts | 169° |
| 2026-02-19 12:41 | 45.62304 | 8.72236 | 741 ft | 18 kts | 170° |
| 2026-02-19 12:42 | 45.62169 | 8.72273 | 741 ft | 21 kts | 168° |
| 2026-02-19 12:42 | 45.62015 | 8.72316 | 741 ft | 24 kts | 169° |
| 2026-02-19 12:42 | 45.61848 | 8.72363 | 739 ft | 25 kts | 169° |
| 2026-02-19 12:42 | 45.61672 | 8.72407 | 742 ft | 26 kts | 171° |
| 2026-02-19 12:43 | 45.61505 | 8.72451 | 741 ft | 20 kts | 169° |
| 2026-02-19 12:43 | 45.61428 | 8.72511 | 742 ft | 13 kts | 117° |
| 2026-02-19 12:43 | 45.61426 | 8.72559 | 742 ft | 1 kts | 84° |
| 2026-02-19 12:43 | 45.61429 | 8.72593 | 742 ft | 7 kts | 80° |
| 2026-02-19 12:44 | 45.61462 | 8.72694 | 742 ft | 13 kts | 37° |
| 2026-02-19 12:44 | 45.62078 | 8.72553 | 741 ft | 106 kts | 348° |
| 2026-02-19 12:44 | 45.62996 | 8.72298 | 741 ft | 159 kts | 349° |
| 2026-02-19 12:45 | 45.64176 | 8.71915 | 1036 ft | 177 kts | 344° |
| 2026-02-19 12:45 | 45.65336 | 8.71353 | 1729 ft | 175 kts | 332° |
| 2026-02-19 12:45 | 45.66421 | 8.70500 | 2239 ft | 186 kts | 327° |
| 2026-02-19 12:45 | 45.67597 | 8.69494 | 2503 ft | 209 kts | 327° |
| 2026-02-19 12:46 | 45.68776 | 8.68187 | 3026 ft | 220 kts | 318° |
| 2026-02-19 12:46 | 45.69949 | 8.66742 | 3779 ft | 224 kts | 320° |
| 2026-02-19 12:46 | 45.71158 | 8.65310 | 4553 ft | 227 kts | 320° |
| 2026-02-19 12:46 | 45.72391 | 8.63867 | 5263 ft | 232 kts | 319° |
| 2026-02-19 12:47 | 45.73373 | 8.62044 | 5967 ft | 236 kts | 290° |
| 2026-02-19 12:47 | 45.73541 | 8.59727 | 6664 ft | 239 kts | 259° |
| 2026-02-19 12:47 | 45.72823 | 8.57590 | 7365 ft | 244 kts | 232° |
| 2026-02-19 12:47 | 45.71726 | 8.55717 | 8108 ft | 246 kts | 231° |
| 2026-02-19 12:48 | 45.70607 | 8.53834 | 8861 ft | 249 kts | 231° |
| 2026-02-19 12:48 | 45.68334 | 8.50010 | 10315 ft | 254 kts | 233° |
| 2026-02-19 12:48 | 45.67199 | 8.48091 | 11003 ft | 256 kts | 233° |
| 2026-02-19 12:49 | 45.66047 | 8.46135 | 11701 ft | 258 kts | 234° |
| 2026-02-19 12:49 | 45.64879 | 8.44172 | 12393 ft | 262 kts | 232° |
| 2026-02-19 12:49 | 45.63378 | 8.42610 | 13032 ft | 275 kts | 209° |
| 2026-02-19 12:49 | 45.61468 | 8.41967 | 13531 ft | 296 kts | 185° |
| 2026-02-19 12:50 | 45.59364 | 8.42558 | 13675 ft | 324 kts | 160° |
| 2026-02-19 12:50 | 45.57315 | 8.44154 | 13812 ft | 348 kts | 144° |
| 2026-02-19 12:50 | 45.55497 | 8.46574 | 13944 ft | 368 kts | 128° |
| 2026-02-19 12:50 | 45.54126 | 8.49726 | 14251 ft | 379 kts | 111° |
| 2026-02-19 12:51 | 45.53147 | 8.53231 | 14809 ft | 382 kts | 109° |
| 2026-02-19 12:51 | 45.52168 | 8.56770 | 15445 ft | 384 kts | 109° |
| 2026-02-19 12:51 | 45.51180 | 8.60322 | 16110 ft | 386 kts | 109° |
| 2026-02-19 12:51 | 45.50188 | 8.63875 | 16785 ft | 386 kts | 109° |
| 2026-02-19 12:52 | 45.49193 | 8.67445 | 17416 ft | 388 kts | 109° |
| 2026-02-19 12:52 | 45.47190 | 8.74638 | 18576 ft | 392 kts | 110° |
| 2026-02-19 12:52 | 45.46196 | 8.78212 | 19118 ft | 394 kts | 110° |
| 2026-02-19 12:53 | 45.45183 | 8.81850 | 19674 ft | 396 kts | 110° |
| 2026-02-19 12:53 | 45.44164 | 8.85505 | 20227 ft | 398 kts | 110° |
| 2026-02-19 12:53 | 45.43139 | 8.89178 | 20771 ft | 400 kts | 110° |
| 2026-02-19 12:53 | 45.42108 | 8.92868 | 21293 ft | 403 kts | 110° |
| 2026-02-19 12:54 | 45.41065 | 8.96584 | 21788 ft | 406 kts | 111° |
| 2026-02-19 12:54 | 45.40008 | 9.00337 | 22218 ft | 411 kts | 111° |
| 2026-02-19 12:54 | 45.38939 | 9.04126 | 22693 ft | 414 kts | 111° |
| 2026-02-19 12:54 | 45.37863 | 9.07941 | 23170 ft | 416 kts | 111° |
| 2026-02-19 12:55 | 45.36782 | 9.11762 | 23564 ft | 419 kts | 111° |
| 2026-02-19 12:55 | 45.35686 | 9.15621 | 23952 ft | 421 kts | 112° |
| 2026-02-19 12:55 | 45.34585 | 9.19489 | 24319 ft | 423 kts | 112° |
| 2026-02-19 12:55 | 45.33477 | 9.23376 | 24690 ft | 425 kts | 112° |
| 2026-02-19 12:56 | 45.32366 | 9.27283 | 25064 ft | 427 kts | 112° |
| 2026-02-19 12:56 | 45.30130 | 9.35157 | 25733 ft | 432 kts | 112° |
| 2026-02-19 12:56 | 45.29003 | 9.39122 | 26157 ft | 433 kts | 112° |
| 2026-02-19 12:57 | 45.27872 | 9.43087 | 26525 ft | 435 kts | 114° |
| 2026-02-19 12:57 | 45.26728 | 9.47077 | 26816 ft | 438 kts | 114° |
| 2026-02-19 12:57 | 45.25573 | 9.51089 | 27152 ft | 439 kts | 113° |
| 2026-02-19 12:57 | 45.24412 | 9.55105 | 27495 ft | 440 kts | 114° |
| 2026-02-19 12:58 | 45.23263 | 9.59082 | 27796 ft | 442 kts | 114° |
| 2026-02-19 12:58 | 45.22066 | 9.63166 | 28068 ft | 444 kts | 117° |
| 2026-02-19 12:58 | 45.20586 | 9.66929 | 28362 ft | 443 kts | 127° |
| 2026-02-19 12:58 | 45.18686 | 9.70340 | 28683 ft | 441 kts | 136° |
| 2026-02-19 12:59 | 45.16433 | 9.73264 | 28967 ft | 439 kts | 145° |
| 2026-02-19 12:59 | 45.13884 | 9.75633 | 29210 ft | 438 kts | 154° |
| 2026-02-19 12:59 | 45.11122 | 9.77424 | 29479 ft | 437 kts | 160° |
| 2026-02-19 12:59 | 45.08306 | 9.79057 | 29726 ft | 439 kts | 160° |
| 2026-02-19 13:00 | 45.05474 | 9.80701 | 29932 ft | 440 kts | 160° |
| 2026-02-19 13:00 | 44.99786 | 9.84007 | 30349 ft | 443 kts | 160° |
| 2026-02-19 13:00 | 44.96940 | 9.85661 | 30604 ft | 443 kts | 161° |
| 2026-02-19 13:01 | 44.94090 | 9.87318 | 30870 ft | 443 kts | 161° |
| 2026-02-19 13:01 | 44.91243 | 9.88972 | 31125 ft | 443 kts | 161° |
| 2026-02-19 13:01 | 44.88391 | 9.90620 | 31375 ft | 442 kts | 161° |
| 2026-02-19 13:01 | 44.85545 | 9.92262 | 31641 ft | 442 kts | 161° |
| 2026-02-19 13:02 | 44.82698 | 9.93905 | 31932 ft | 440 kts | 162° |
| 2026-02-19 13:02 | 44.79870 | 9.95537 | 32243 ft | 439 kts | 162° |
| 2026-02-19 13:02 | 44.77046 | 9.97160 | 32521 ft | 438 kts | 162° |
| 2026-02-19 13:02 | 44.74226 | 9.98778 | 32762 ft | 438 kts | 163° |
| 2026-02-19 13:03 | 44.71403 | 10.00402 | 33017 ft | 438 kts | 163° |
| 2026-02-19 13:03 | 44.68587 | 10.02022 | 33285 ft | 438 kts | 163° |
| 2026-02-19 13:03 | 44.65765 | 10.03646 | 33536 ft | 438 kts | 163° |
| 2026-02-19 13:03 | 44.62949 | 10.05265 | 33766 ft | 437 kts | 163° |
| 2026-02-19 13:04 | 44.60132 | 10.06883 | 33966 ft | 438 kts | 163° |
| 2026-02-19 13:04 | 44.54485 | 10.10110 | 34308 ft | 439 kts | 163° |
| 2026-02-19 13:04 | 44.51652 | 10.11721 | 34471 ft | 439 kts | 163° |
| 2026-02-19 13:05 | 44.48820 | 10.13333 | 34561 ft | 439 kts | 163° |
| 2026-02-19 13:05 | 44.43183 | 10.16544 | 34580 ft | 436 kts | 163° |
| 2026-02-19 13:06 | 44.37594 | 10.19715 | 34591 ft | 436 kts | 163° |
| 2026-02-19 13:06 | 44.32001 | 10.22883 | 34586 ft | 432 kts | 163° |
| 2026-02-19 13:07 | 44.26439 | 10.26030 | 34614 ft | 431 kts | 163° |
| 2026-02-19 13:07 | 44.20881 | 10.29158 | 34609 ft | 431 kts | 163° |
| 2026-02-19 13:08 | 44.15318 | 10.32292 | 34591 ft | 431 kts | 163° |
| 2026-02-19 13:08 | 44.06977 | 10.36978 | 34588 ft | 431 kts | 164° |
| 2026-02-19 13:09 | 44.01423 | 10.40085 | 34620 ft | 430 kts | 164° |
| 2026-02-19 13:09 | 43.95863 | 10.43193 | 34637 ft | 431 kts | 164° |
| 2026-02-19 13:10 | 43.90305 | 10.46301 | 34636 ft | 431 kts | 164° |
| 2026-02-19 13:10 | 43.84746 | 10.49402 | 34652 ft | 431 kts | 164° |
| 2026-02-19 13:11 | 43.79184 | 10.52485 | 34664 ft | 431 kts | 164° |
| 2026-02-19 13:11 | 43.73498 | 10.54727 | 34647 ft | 421 kts | 177° |
| 2026-02-19 13:12 | 43.64870 | 10.56713 | 34664 ft | 420 kts | 176° |
| 2026-02-19 13:13 | 43.59107 | 10.58054 | 34680 ft | 419 kts | 177° |
| 2026-02-19 13:13 | 43.53368 | 10.59384 | 34698 ft | 417 kts | 178° |
| 2026-02-19 13:14 | 43.47659 | 10.60693 | 34715 ft | 415 kts | 178° |
| 2026-02-19 13:14 | 43.41967 | 10.61996 | 34717 ft | 414 kts | 178° |
| 2026-02-19 13:15 | 43.36291 | 10.63302 | 34720 ft | 413 kts | 178° |
| 2026-02-19 13:15 | 43.30622 | 10.64606 | 34701 ft | 412 kts | 178° |
| 2026-02-19 13:16 | 43.25081 | 10.67044 | 34712 ft | 425 kts | 164° |
| 2026-02-19 13:16 | 43.16967 | 10.71991 | 34708 ft | 425 kts | 164° |
| 2026-02-19 13:17 | 43.11554 | 10.75270 | 34697 ft | 425 kts | 164° |
| 2026-02-19 13:17 | 43.06183 | 10.78531 | 34711 ft | 424 kts | 165° |
| 2026-02-19 13:18 | 43.00789 | 10.81797 | 34717 ft | 424 kts | 165° |
| 2026-02-19 13:18 | 42.95404 | 10.85053 | 34713 ft | 423 kts | 165° |
| 2026-02-19 13:19 | 42.90024 | 10.88301 | 34700 ft | 423 kts | 165° |
| 2026-02-19 13:19 | 42.84649 | 10.91542 | 34699 ft | 422 kts | 165° |
| 2026-02-19 13:20 | 42.76596 | 10.96358 | 34701 ft | 421 kts | 165° |
| 2026-02-19 13:21 | 42.71236 | 10.99577 | 34704 ft | 421 kts | 165° |
| 2026-02-19 13:21 | 42.65868 | 11.02782 | 34694 ft | 420 kts | 165° |
| 2026-02-19 13:22 | 42.60521 | 11.05971 | 34704 ft | 420 kts | 165° |
| 2026-02-19 13:22 | 42.55174 | 11.09160 | 34708 ft | 420 kts | 165° |
| 2026-02-19 13:23 | 42.49826 | 11.12342 | 34712 ft | 419 kts | 165° |
| 2026-02-19 13:23 | 42.44520 | 11.15488 | 34695 ft | 419 kts | 166° |
| 2026-02-19 13:24 | 42.39177 | 11.18656 | 34700 ft | 419 kts | 166° |
| 2026-02-19 13:25 | 42.28504 | 11.24959 | 34705 ft | 418 kts | 166° |
| 2026-02-19 13:25 | 42.23169 | 11.28099 | 34706 ft | 418 kts | 166° |
| 2026-02-19 13:26 | 42.17830 | 11.31234 | 34687 ft | 418 kts | 166° |
| 2026-02-19 13:26 | 42.12502 | 11.34370 | 34705 ft | 417 kts | 166° |
| 2026-02-19 13:27 | 42.08079 | 11.36965 | 34711 ft | 417 kts | 166° |
| 2026-02-19 13:27 | 42.02767 | 11.40073 | 34679 ft | 416 kts | 167° |
| 2026-02-19 13:28 | 41.97452 | 11.43174 | 34691 ft | 416 kts | 167° |
| 2026-02-19 13:28 | 41.89487 | 11.47804 | 34708 ft | 416 kts | 167° |
| 2026-02-19 13:29 | 41.84178 | 11.50885 | 34711 ft | 416 kts | 167° |
| 2026-02-19 13:29 | 41.78869 | 11.53971 | 34689 ft | 416 kts | 167° |
| 2026-02-19 13:30 | 41.73554 | 11.57046 | 34703 ft | 416 kts | 167° |
| 2026-02-19 13:30 | 41.68276 | 11.60104 | 34714 ft | 416 kts | 167° |
| 2026-02-19 13:31 | 41.62958 | 11.63171 | 34720 ft | 416 kts | 167° |
| 2026-02-19 13:31 | 41.57640 | 11.66222 | 34700 ft | 416 kts | 167° |
| 2026-02-19 13:32 | 41.49658 | 11.70810 | 34731 ft | 416 kts | 168° |
| 2026-02-19 13:33 | 41.44336 | 11.73863 | 34740 ft | 416 kts | 168° |
| 2026-02-19 13:33 | 41.39024 | 11.76900 | 34751 ft | 415 kts | 168° |
| 2026-02-19 13:34 | 41.33712 | 11.79940 | 34724 ft | 416 kts | 168° |
| 2026-02-19 13:34 | 41.28384 | 11.82973 | 34732 ft | 416 kts | 168° |
| 2026-02-19 13:35 | 41.23091 | 11.85983 | 34739 ft | 417 kts | 168° |
| 2026-02-19 13:35 | 41.17758 | 11.89016 | 34742 ft | 417 kts | 168° |
| 2026-02-19 13:36 | 41.12421 | 11.92045 | 34735 ft | 417 kts | 168° |
| 2026-02-19 13:36 | 41.04413 | 11.96590 | 34750 ft | 417 kts | 168° |
| 2026-02-19 13:37 | 40.99072 | 11.99598 | 34756 ft | 417 kts | 168° |
| 2026-02-19 13:37 | 40.93727 | 12.02605 | 34761 ft | 417 kts | 168° |
| 2026-02-19 13:38 | 40.88383 | 12.05616 | 34756 ft | 418 kts | 169° |
| 2026-02-19 13:38 | 40.83017 | 12.08632 | 34770 ft | 419 kts | 169° |
| 2026-02-19 13:39 | 40.77654 | 12.11636 | 34783 ft | 419 kts | 169° |
| 2026-02-19 13:39 | 40.72323 | 12.14617 | 34787 ft | 419 kts | 169° |
| 2026-02-19 13:40 | 40.64280 | 12.19101 | 34752 ft | 418 kts | 169° |
| 2026-02-19 13:41 | 40.58912 | 12.22090 | 34761 ft | 419 kts | 169° |
| 2026-02-19 13:41 | 40.53544 | 12.25084 | 34778 ft | 419 kts | 169° |
| 2026-02-19 13:42 | 40.48179 | 12.28064 | 34783 ft | 419 kts | 169° |
| 2026-02-19 13:42 | 40.42812 | 12.31035 | 34767 ft | 418 kts | 169° |
| 2026-02-19 13:43 | 40.37448 | 12.34002 | 34778 ft | 418 kts | 169° |
| 2026-02-19 13:43 | 40.32079 | 12.36971 | 34785 ft | 418 kts | 169° |
| 2026-02-19 13:44 | 40.26753 | 12.39915 | 34788 ft | 418 kts | 169° |
| 2026-02-19 13:44 | 40.18695 | 12.44347 | 34796 ft | 420 kts | 170° |
| 2026-02-19 13:45 | 40.13308 | 12.47298 | 34803 ft | 419 kts | 170° |
| 2026-02-19 13:45 | 40.07926 | 12.50258 | 34810 ft | 419 kts | 170° |
| 2026-02-19 13:46 | 40.02555 | 12.53205 | 34815 ft | 419 kts | 170° |
| 2026-02-19 13:46 | 39.97186 | 12.56138 | 34814 ft | 418 kts | 170° |
| 2026-02-19 13:47 | 39.91814 | 12.59060 | 34820 ft | 418 kts | 170° |
| 2026-02-19 13:47 | 39.86446 | 12.61977 | 34821 ft | 418 kts | 170° |
| 2026-02-19 13:48 | 39.78395 | 12.66348 | 34827 ft | 418 kts | 170° |
| 2026-02-19 13:49 | 39.73062 | 12.69240 | 34807 ft | 419 kts | 170° |
| 2026-02-19 13:49 | 39.67675 | 12.72156 | 34816 ft | 419 kts | 170° |
| 2026-02-19 13:50 | 39.62287 | 12.75071 | 34822 ft | 420 kts | 170° |
| 2026-02-19 13:50 | 39.56897 | 12.77986 | 34820 ft | 419 kts | 169° |
| 2026-02-19 13:51 | 39.51495 | 12.80885 | 34805 ft | 420 kts | 169° |
| 2026-02-19 13:51 | 39.46088 | 12.83784 | 34827 ft | 420 kts | 169° |
| 2026-02-19 13:52 | 39.40684 | 12.86687 | 34838 ft | 420 kts | 169° |
| 2026-02-19 13:52 | 39.32611 | 12.91021 | 34854 ft | 420 kts | 169° |
| 2026-02-19 13:53 | 39.27204 | 12.93911 | 34845 ft | 422 kts | 169° |
| 2026-02-19 13:53 | 39.21774 | 12.96800 | 34852 ft | 422 kts | 169° |
| 2026-02-19 13:54 | 39.16346 | 12.99693 | 34874 ft | 422 kts | 169° |
| 2026-02-19 13:54 | 39.10912 | 13.02584 | 34880 ft | 422 kts | 169° |
| 2026-02-19 13:55 | 39.05475 | 13.05466 | 34838 ft | 422 kts | 169° |
| 2026-02-19 13:55 | 39.00037 | 13.08341 | 34865 ft | 423 kts | 169° |
| 2026-02-19 13:56 | 38.91855 | 13.12671 | 34877 ft | 425 kts | 169° |
| 2026-02-19 13:57 | 38.86378 | 13.15573 | 34875 ft | 427 kts | 169° |
| 2026-02-19 13:57 | 38.80875 | 13.18479 | 34883 ft | 429 kts | 169° |
| 2026-02-19 13:58 | 38.75340 | 13.21383 | 34897 ft | 430 kts | 168° |
| 2026-02-19 13:58 | 38.69803 | 13.24291 | 34906 ft | 430 kts | 168° |
| 2026-02-19 13:59 | 38.64265 | 13.27199 | 34908 ft | 430 kts | 169° |
| 2026-02-19 13:59 | 38.58728 | 13.30096 | 34880 ft | 430 kts | 168° |
| 2026-02-19 14:00 | 38.53227 | 13.32968 | 34886 ft | 430 kts | 168° |
| 2026-02-19 14:00 | 38.44905 | 13.37296 | 34896 ft | 431 kts | 168° |
| 2026-02-19 14:01 | 38.39357 | 13.40187 | 34911 ft | 431 kts | 168° |
| 2026-02-19 14:01 | 38.33804 | 13.43077 | 34879 ft | 431 kts | 168° |
| 2026-02-19 14:02 | 38.28218 | 13.45975 | 34912 ft | 434 kts | 168° |
| 2026-02-19 14:02 | 38.22620 | 13.48876 | 34922 ft | 434 kts | 168° |
| 2026-02-19 14:03 | 38.17023 | 13.51770 | 34926 ft | 434 kts | 168° |
| 2026-02-19 14:03 | 38.11424 | 13.54651 | 34935 ft | 434 kts | 168° |
| 2026-02-19 14:04 | 38.00179 | 13.60445 | 34927 ft | 437 kts | 167° |
| 2026-02-19 14:05 | 37.94536 | 13.63347 | 34918 ft | 439 kts | 167° |
| 2026-02-19 14:05 | 37.91775 | 13.65112 | 34675 ft | 451 kts | 156° |
| 2026-02-19 14:05 | 37.89251 | 13.67549 | 34426 ft | 463 kts | 144° |
| 2026-02-19 14:06 | 37.87081 | 13.70635 | 34186 ft | 475 kts | 132° |
| 2026-02-19 14:06 | 37.85408 | 13.74226 | 33952 ft | 485 kts | 120° |
| 2026-02-19 14:06 | 37.84127 | 13.78185 | 33676 ft | 486 kts | 117° |
| 2026-02-19 14:06 | 37.82873 | 13.82154 | 33378 ft | 484 kts | 117° |
| 2026-02-19 14:07 | 37.81622 | 13.86098 | 33099 ft | 482 kts | 117° |
| 2026-02-19 14:07 | 37.80378 | 13.90004 | 32672 ft | 477 kts | 117° |
| 2026-02-19 14:07 | 37.79133 | 13.93890 | 32051 ft | 476 kts | 117° |
| 2026-02-19 14:07 | 37.77890 | 13.97760 | 31456 ft | 474 kts | 117° |
| 2026-02-19 14:08 | 37.76654 | 14.01606 | 30853 ft | 472 kts | 117° |
| 2026-02-19 14:08 | 37.74183 | 14.09266 | 29641 ft | 469 kts | 117° |
| 2026-02-19 14:08 | 37.72957 | 14.13072 | 29065 ft | 464 kts | 117° |
| 2026-02-19 14:09 | 37.71745 | 14.16838 | 28497 ft | 461 kts | 117° |
| 2026-02-19 14:09 | 37.70544 | 14.20571 | 27942 ft | 457 kts | 117° |
| 2026-02-19 14:09 | 37.69353 | 14.24269 | 27406 ft | 453 kts | 117° |
| 2026-02-19 14:09 | 37.68164 | 14.27943 | 26884 ft | 450 kts | 117° |
| 2026-02-19 14:10 | 37.66986 | 14.31574 | 26366 ft | 446 kts | 117° |
| 2026-02-19 14:10 | 37.65813 | 14.35176 | 25853 ft | 442 kts | 117° |
| 2026-02-19 14:10 | 37.64642 | 14.38752 | 25336 ft | 439 kts | 119° |
| 2026-02-19 14:10 | 37.63165 | 14.42064 | 24855 ft | 427 kts | 132° |
| 2026-02-19 14:11 | 37.61241 | 14.44826 | 24400 ft | 413 kts | 145° |
| 2026-02-19 14:11 | 37.58986 | 14.46963 | 23921 ft | 400 kts | 157° |
| 2026-02-19 14:11 | 37.56518 | 14.48443 | 23443 ft | 387 kts | 168° |
| 2026-02-19 14:11 | 37.53965 | 14.49393 | 22957 ft | 380 kts | 172° |
| 2026-02-19 14:12 | 37.51466 | 14.50280 | 22515 ft | 376 kts | 172° |
| 2026-02-19 14:12 | 37.46479 | 14.52066 | 21614 ft | 369 kts | 172° |
| 2026-02-19 14:12 | 37.44025 | 14.52943 | 21163 ft | 366 kts | 172° |
| 2026-02-19 14:13 | 37.41585 | 14.53812 | 20723 ft | 363 kts | 172° |
| 2026-02-19 14:13 | 37.39165 | 14.54671 | 20287 ft | 360 kts | 172° |
| 2026-02-19 14:13 | 37.36762 | 14.55521 | 19853 ft | 358 kts | 172° |
| 2026-02-19 14:13 | 37.34380 | 14.56411 | 19414 ft | 360 kts | 166° |
| 2026-02-19 14:14 | 37.32216 | 14.58104 | 18942 ft | 378 kts | 142° |
| 2026-02-19 14:14 | 37.30701 | 14.60876 | 18414 ft | 396 kts | 116° |
| 2026-02-19 14:14 | 37.30187 | 14.64293 | 17827 ft | 406 kts | 90° |
| 2026-02-19 14:14 | 37.30471 | 14.67826 | 17288 ft | 407 kts | 82° |
| 2026-02-19 14:15 | 37.30969 | 14.71325 | 16753 ft | 407 kts | 78° |
| 2026-02-19 14:15 | 37.31565 | 14.74800 | 16206 ft | 408 kts | 77° |
| 2026-02-19 14:15 | 37.32176 | 14.78250 | 16010 ft | 399 kts | 78° |
| 2026-02-19 14:15 | 37.32744 | 14.81614 | 15882 ft | 388 kts | 78° |
| 2026-02-19 14:16 | 37.33257 | 14.84892 | 15753 ft | 377 kts | 79° |
| 2026-02-19 14:16 | 37.34169 | 14.91205 | 15501 ft | 358 kts | 80° |
| 2026-02-19 14:16 | 37.34594 | 14.94247 | 15374 ft | 349 kts | 81° |
| 2026-02-19 14:17 | 37.35009 | 14.97222 | 15162 ft | 344 kts | 80° |
| 2026-02-19 14:17 | 37.35281 | 14.99174 | 14993 ft | 342 kts | 80° |
| 2026-02-19 14:17 | 37.35692 | 15.02111 | 14698 ft | 340 kts | 80° |
| 2026-02-19 14:17 | 37.36101 | 15.05031 | 14402 ft | 339 kts | 80° |
| 2026-02-19 14:18 | 37.36509 | 15.07942 | 14115 ft | 337 kts | 80° |
| 2026-02-19 14:18 | 37.36918 | 15.10838 | 13833 ft | 336 kts | 80° |
| 2026-02-19 14:18 | 37.37325 | 15.13719 | 13514 ft | 334 kts | 80° |
| 2026-02-19 14:18 | 37.37861 | 15.17512 | 13106 ft | 331 kts | 80° |
| 2026-02-19 14:19 | 37.38132 | 15.19434 | 12904 ft | 330 kts | 81° |
| 2026-02-19 14:19 | 37.38531 | 15.22264 | 12605 ft | 328 kts | 81° |
| 2026-02-19 14:19 | 37.38924 | 15.25078 | 12293 ft | 326 kts | 81° |
| 2026-02-19 14:19 | 37.39315 | 15.27886 | 11831 ft | 329 kts | 81° |
| 2026-02-19 14:20 | 37.40583 | 15.37085 | 8999 ft | 378 kts | 82° |
| 2026-02-19 14:20 | 37.41040 | 15.40394 | 7959 ft | 389 kts | 82° |
| 2026-02-19 14:21 | 37.41506 | 15.43781 | 6938 ft | 397 kts | 82° |
| 2026-02-19 14:21 | 37.41975 | 15.47183 | 6433 ft | 389 kts | 82° |
| 2026-02-19 14:21 | 37.42587 | 15.50424 | 6123 ft | 375 kts | 68° |
| 2026-02-19 14:21 | 37.44042 | 15.53042 | 5820 ft | 360 kts | 40° |
| 2026-02-19 14:22 | 37.46163 | 15.54508 | 5554 ft | 340 kts | 11° |
| 2026-02-19 14:22 | 37.48402 | 15.54593 | 5311 ft | 318 kts | 345° |
| 2026-02-19 14:22 | 37.50426 | 15.53702 | 5025 ft | 300 kts | 322° |
| 2026-02-19 14:22 | 37.51744 | 15.51848 | 4828 ft | 275 kts | 290° |
| 2026-02-19 14:23 | 37.52226 | 15.49609 | 4639 ft | 258 kts | 271° |
| 2026-02-19 14:23 | 37.52115 | 15.47425 | 4451 ft | 244 kts | 259° |
| 2026-02-19 14:23 | 37.51864 | 15.45358 | 4258 ft | 234 kts | 258° |
| 2026-02-19 14:23 | 37.51610 | 15.43380 | 4092 ft | 223 kts | 258° |
| 2026-02-19 14:24 | 37.51363 | 15.41510 | 3995 ft | 211 kts | 257° |
| 2026-02-19 14:24 | 37.50702 | 15.37976 | 3993 ft | 207 kts | 248° |
| 2026-02-19 14:24 | 37.50214 | 15.36271 | 3991 ft | 207 kts | 249° |
| 2026-02-19 14:25 | 37.49727 | 15.34567 | 3988 ft | 206 kts | 249° |
| 2026-02-19 14:25 | 37.49243 | 15.32868 | 3987 ft | 206 kts | 248° |
| 2026-02-19 14:25 | 37.48768 | 15.31158 | 3985 ft | 207 kts | 253° |
| 2026-02-19 14:25 | 37.48564 | 15.29357 | 3984 ft | 208 kts | 262° |
| 2026-02-19 14:26 | 37.48418 | 15.27562 | 3987 ft | 211 kts | 262° |
| 2026-02-19 14:26 | 37.48268 | 15.25722 | 3983 ft | 212 kts | 262° |
| 2026-02-19 14:26 | 37.48119 | 15.23886 | 3980 ft | 211 kts | 262° |
| 2026-02-19 14:26 | 37.47969 | 15.22055 | 3977 ft | 210 kts | 261° |
| 2026-02-19 14:27 | 37.47818 | 15.20219 | 3976 ft | 212 kts | 262° |
| 2026-02-19 14:27 | 37.47665 | 15.18375 | 3976 ft | 212 kts | 262° |
| 2026-02-19 14:27 | 37.47509 | 15.16531 | 3974 ft | 212 kts | 262° |
| 2026-02-19 14:27 | 37.47355 | 15.14689 | 3975 ft | 212 kts | 262° |
| 2026-02-19 14:28 | 37.47201 | 15.12838 | 3975 ft | 213 kts | 262° |
| 2026-02-19 14:28 | 37.46893 | 15.09133 | 3975 ft | 212 kts | 261° |
| 2026-02-19 14:28 | 37.46736 | 15.07286 | 3974 ft | 213 kts | 262° |
| 2026-02-19 14:29 | 37.46578 | 15.05438 | 3974 ft | 212 kts | 262° |
| 2026-02-19 14:29 | 37.46421 | 15.03589 | 3974 ft | 212 kts | 262° |
| 2026-02-19 14:29 | 37.46267 | 15.01743 | 3974 ft | 212 kts | 262° |
| 2026-02-19 14:29 | 37.46112 | 14.99899 | 3988 ft | 211 kts | 262° |
| 2026-02-19 14:30 | 37.45959 | 14.98062 | 3987 ft | 211 kts | 262° |
| 2026-02-19 14:30 | 37.45805 | 14.96223 | 3989 ft | 212 kts | 262° |
| 2026-02-19 14:30 | 37.45648 | 14.94376 | 3988 ft | 212 kts | 262° |
| 2026-02-19 14:30 | 37.45489 | 14.92526 | 3999 ft | 212 kts | 262° |
| 2026-02-19 14:31 | 37.45329 | 14.90683 | 3992 ft | 212 kts | 259° |
| 2026-02-19 14:31 | 37.45169 | 14.88840 | 3990 ft | 212 kts | 260° |
| 2026-02-19 14:31 | 37.45009 | 14.86987 | 3989 ft | 213 kts | 261° |
| 2026-02-19 14:31 | 37.44851 | 14.85156 | 3989 ft | 212 kts | 260° |
| 2026-02-19 14:32 | 37.44691 | 14.83317 | 3988 ft | 211 kts | 261° |
| 2026-02-19 14:32 | 37.44371 | 14.79633 | 3990 ft | 213 kts | 260° |
| 2026-02-19 14:32 | 37.44212 | 14.77790 | 3986 ft | 210 kts | 260° |
| 2026-02-19 14:33 | 37.44055 | 14.75964 | 3988 ft | 210 kts | 260° |
| 2026-02-19 14:33 | 37.43895 | 14.74136 | 3988 ft | 211 kts | 260° |
| 2026-02-19 14:33 | 37.43734 | 14.72298 | 3985 ft | 212 kts | 261° |
| 2026-02-19 14:33 | 37.43573 | 14.70451 | 3987 ft | 211 kts | 260° |
| 2026-02-19 14:34 | 37.43413 | 14.68624 | 3987 ft | 209 kts | 260° |
| 2026-02-19 14:34 | 37.43253 | 14.66795 | 3987 ft | 212 kts | 260° |
| 2026-02-19 14:34 | 37.42932 | 14.65011 | 3985 ft | 207 kts | 239° |
| 2026-02-19 14:34 | 37.41941 | 14.63753 | 3984 ft | 206 kts | 206° |
| 2026-02-19 14:35 | 37.40567 | 14.63206 | 3985 ft | 208 kts | 197° |
| 2026-02-19 14:35 | 37.39184 | 14.62687 | 3982 ft | 206 kts | 208° |
| 2026-02-19 14:35 | 37.38100 | 14.61586 | 3985 ft | 205 kts | 234° |
| 2026-02-19 14:35 | 37.37625 | 14.59882 | 3987 ft | 210 kts | 265° |
| 2026-02-19 14:36 | 37.37983 | 14.58091 | 3987 ft | 219 kts | 297° |
| 2026-02-19 14:36 | 37.40724 | 14.56564 | 3989 ft | 241 kts | 12° |
| 2026-02-19 14:36 | 37.42155 | 14.57628 | 3989 ft | 244 kts | 53° |
| 2026-02-19 14:37 | 37.42785 | 14.59558 | 3994 ft | 241 kts | 88° |
| 2026-02-19 14:37 | 37.42936 | 14.61664 | 3987 ft | 242 kts | 89° |
| 2026-02-19 14:37 | 37.43068 | 14.63772 | 3987 ft | 242 kts | 90° |
| 2026-02-19 14:37 | 37.43195 | 14.65870 | 3983 ft | 240 kts | 90° |
| 2026-02-19 14:38 | 37.42984 | 14.67904 | 3981 ft | 232 kts | 118° |
| 2026-02-19 14:38 | 37.42086 | 14.69524 | 3986 ft | 224 kts | 145° |
| 2026-02-19 14:38 | 37.40748 | 14.70423 | 3985 ft | 216 kts | 172° |
| 2026-02-19 14:38 | 37.39283 | 14.70484 | 3986 ft | 209 kts | 195° |
| 2026-02-19 14:39 | 37.37978 | 14.69768 | 3981 ft | 204 kts | 218° |
| 2026-02-19 14:39 | 37.37042 | 14.68443 | 3985 ft | 205 kts | 241° |
| 2026-02-19 14:39 | 37.36617 | 14.66712 | 3989 ft | 210 kts | 258° |
| 2026-02-19 14:39 | 37.36455 | 14.64895 | 3986 ft | 208 kts | 261° |
| 2026-02-19 14:40 | 37.36338 | 14.63071 | 3986 ft | 211 kts | 262° |
| 2026-02-19 14:40 | 37.36120 | 14.59381 | 3989 ft | 211 kts | 262° |
| 2026-02-19 14:40 | 37.36142 | 14.57539 | 3986 ft | 214 kts | 278° |
| 2026-02-19 14:41 | 37.36728 | 14.55807 | 3990 ft | 221 kts | 301° |
| 2026-02-19 14:41 | 37.37907 | 14.54533 | 3989 ft | 230 kts | 330° |
| 2026-02-19 14:41 | 37.39486 | 14.54085 | 3986 ft | 240 kts | 359° |
| 2026-02-19 14:41 | 37.41075 | 14.54665 | 3989 ft | 246 kts | 28° |
| 2026-02-19 14:42 | 37.42578 | 14.55714 | 3990 ft | 246 kts | 19° |
| 2026-02-19 14:42 | 37.44220 | 14.56257 | 3985 ft | 244 kts | 7° |
| 2026-02-19 14:42 | 37.45878 | 14.56698 | 3984 ft | 244 kts | 9° |
| 2026-02-19 14:42 | 37.47528 | 14.57171 | 3978 ft | 243 kts | 11° |
| 2026-02-19 14:43 | 37.49087 | 14.58013 | 3977 ft | 246 kts | 35° |
| 2026-02-19 14:43 | 37.50180 | 14.59634 | 3973 ft | 244 kts | 69° |
| 2026-02-19 14:43 | 37.50511 | 14.61692 | 3974 ft | 241 kts | 91° |
| 2026-02-19 14:43 | 37.50546 | 14.63801 | 3971 ft | 242 kts | 93° |
| 2026-02-19 14:44 | 37.50534 | 14.65900 | 3942 ft | 235 kts | 94° |
| 2026-02-19 14:44 | 37.50485 | 14.70038 | 3946 ft | 238 kts | 94° |
| 2026-02-19 14:44 | 37.50472 | 14.72133 | 3945 ft | 240 kts | 94° |
| 2026-02-19 14:45 | 37.50466 | 14.74235 | 3945 ft | 240 kts | 93° |
| 2026-02-19 14:45 | 37.50454 | 14.76325 | 3942 ft | 238 kts | 94° |
| 2026-02-19 14:45 | 37.50444 | 14.78420 | 3944 ft | 240 kts | 93° |
| 2026-02-19 14:45 | 37.50439 | 14.80525 | 3945 ft | 241 kts | 95° |
| 2026-02-19 14:46 | 37.50431 | 14.82632 | 3946 ft | 241 kts | 94° |
| 2026-02-19 14:46 | 37.50429 | 14.84734 | 3944 ft | 239 kts | 94° |
| 2026-02-19 14:46 | 37.50426 | 14.86827 | 3939 ft | 239 kts | 94° |
| 2026-02-19 14:46 | 37.50424 | 14.88923 | 3940 ft | 240 kts | 94° |
| 2026-02-19 14:47 | 37.50424 | 14.91024 | 3943 ft | 239 kts | 94° |
| 2026-02-19 14:47 | 37.50415 | 14.93108 | 3939 ft | 238 kts | 93° |
| 2026-02-19 14:47 | 37.50372 | 14.95205 | 3933 ft | 240 kts | 94° |
| 2026-02-19 14:47 | 37.50317 | 14.97307 | 3934 ft | 240 kts | 94° |
| 2026-02-19 14:48 | 37.50268 | 14.99403 | 3932 ft | 236 kts | 94° |
| 2026-02-19 14:48 | 37.50182 | 15.03297 | 3883 ft | 211 kts | 94° |
| 2026-02-19 14:48 | 37.50149 | 15.05145 | 3880 ft | 211 kts | 94° |
| 2026-02-19 14:49 | 37.50123 | 15.06999 | 3883 ft | 212 kts | 94° |
| 2026-02-19 14:49 | 37.50096 | 15.08832 | 3852 ft | 212 kts | 94° |
| 2026-02-19 14:49 | 37.50061 | 15.10684 | 3670 ft | 211 kts | 94° |
| 2026-02-19 14:49 | 37.50028 | 15.12525 | 3492 ft | 211 kts | 94° |
| 2026-02-19 14:50 | 37.49999 | 15.14368 | 3368 ft | 210 kts | 94° |
| 2026-02-19 14:50 | 37.49968 | 15.16205 | 3296 ft | 209 kts | 94° |
| 2026-02-19 14:50 | 37.49935 | 15.18039 | 3306 ft | 210 kts | 94° |
| 2026-02-19 14:50 | 37.49863 | 15.19866 | 3340 ft | 208 kts | 104° |
| 2026-02-19 14:51 | 37.49198 | 15.21403 | 3308 ft | 198 kts | 144° |
| 2026-02-19 14:51 | 37.48004 | 15.22068 | 3183 ft | 182 kts | 182° |
| 2026-02-19 14:51 | 37.46846 | 15.21686 | 2974 ft | 169 kts | 220° |
| 2026-02-19 14:51 | 37.46134 | 15.20543 | 2778 ft | 167 kts | 243° |
| 2026-02-19 14:52 | 37.45816 | 15.19141 | 2557 ft | 169 kts | 266° |
| 2026-02-19 14:52 | 37.46469 | 15.16341 | 1942 ft | 163 kts | 289° |
| 2026-02-19 14:52 | 37.46886 | 15.15037 | 1685 ft | 156 kts | 285° |
| 2026-02-19 14:53 | 37.47136 | 15.13777 | 1420 ft | 145 kts | 276° |
| 2026-02-19 14:53 | 37.47149 | 15.12521 | 954 ft | 144 kts | 261° |
| 2026-02-19 14:53 | 37.46997 | 15.11283 | 645 ft | 136 kts | 262° |
| 2026-02-19 14:53 | 37.46944 | 15.10089 | 452 ft | 134 kts | 265° |
| 2026-02-19 14:54 | 37.46858 | 15.08908 | 260 ft | 136 kts | 263° |
| 2026-02-19 14:54 | 37.46769 | 15.07739 | 54 ft | 134 kts | 263° |
| 2026-02-19 14:54 | 37.46684 | 15.06725 | 22 ft | 80 kts | 265° |
| 2026-02-19 14:54 | 37.46693 | 15.06446 | 23 ft | 15 kts | 313° |
| 2026-02-19 14:55 | 37.46786 | 15.06428 | 22 ft | 11 kts | 4° |
| 2026-02-19 14:55 | 37.46854 | 15.06432 | 22 ft | 9 kts | 2° |
| 2026-02-19 14:55 | 37.46909 | 15.06447 | 22 ft | 6 kts | 18° |
| 2026-02-19 14:55 | 37.46940 | 15.06461 | 24 ft | 4 kts | 21° |
| 2026-02-19 14:56 | 37.46956 | 15.06469 | 22 ft | 0 kts | 21° |